Time;durP1;ratioP1;P1;durP2;ratioP2;P2;SDS_P1;SDS_P2;PMS_P1;PMS_P2;Temp;Humidity;BMP_temperature;BMP_pressure;BME280_temperature;BME280_humidity;BME280_pressure;Samples;Min_cycle;Max_cycle;Signal;HPM_P1;HPM_P2
2022/08/10 00:02:38;;;;;;;3.72;2.47;;;13.50;99.90;;;;;;4993769;28;20049;-74
2022/08/10 00:05:05;;;;;;;2.67;2.30;;;13.50;99.90;;;;;;4994965;28;20080;-70
2022/08/10 00:07:32;;;;;;;8.85;3.50;;;13.50;99.90;;;;;;4990921;28;20050;-69
2022/08/10 00:10:00;;;;;;;4.88;2.20;;;13.50;99.90;;;;;;4994486;28;20196;-74
2022/08/10 00:12:27;;;;;;;1.85;1.75;;;13.40;99.90;;;;;;4994396;28;20135;-71
2022/08/10 00:15:17;;;;;;;3.40;2.20;;;13.40;99.90;;;;;;4990676;28;20812;-73
2022/08/10 00:18:04;;;;;;;2.47;2.28;;;13.50;99.90;;;;;;4993514;28;20483;-72
2022/08/10 00:20:31;;;;;;;3.10;2.55;;;13.40;99.90;;;;;;4992437;28;20053;-71
2022/08/10 00:22:58;;;;;;;3.83;3.00;;;13.40;99.90;;;;;;4993993;28;20667;-69
2022/08/10 00:25:25;;;;;;;3.55;2.58;;;13.40;99.90;;;;;;4991187;28;20096;-71
2022/08/10 00:27:52;;;;;;;4.78;3.00;;;13.40;99.90;;;;;;4990806;28;20058;-71
2022/08/10 00:30:29;;;;;;;3.58;2.92;;;13.30;99.90;;;;;;4991514;28;20133;-73
2022/08/10 00:32:56;;;;;;;3.25;2.08;;;13.30;99.90;;;;;;4991053;28;20053;-73
2022/08/10 00:35:24;;;;;;;4.57;2.25;;;13.30;99.90;;;;;;4990485;28;20456;-70
2022/08/10 00:37:51;;;;;;;3.17;2.58;;;13.30;99.90;;;;;;4992542;28;20069;-69
2022/08/10 00:40:24;;;;;;;3.63;2.83;;;13.30;99.90;;;;;;4992062;28;20224;-72
2022/08/10 00:43:05;;;;;;;2.88;2.50;;;13.20;99.90;;;;;;4995446;28;20050;-68
2022/08/10 00:45:33;;;;;;;3.72;3.42;;;13.20;99.90;;;;;;4990680;28;20050;-74
2022/08/10 00:48:00;;;;;;;3.15;2.47;;;13.20;99.90;;;;;;4991654;28;20093;-77
2022/08/10 00:50:27;;;;;;;3.20;2.92;;;13.20;99.90;;;;;;4992643;28;20050;-73
2022/08/10 00:52:54;;;;;;;4.20;2.38;;;13.20;99.90;;;;;;4992377;28;20524;-70
2022/08/10 00:55:22;;;;;;;2.92;2.63;;;13.20;99.90;;;;;;4989879;28;20136;-70
2022/08/10 00:57:49;;;;;;;4.15;2.22;;;13.10;99.90;;;;;;4992587;28;21139;-70
2022/08/10 01:00:22;;;;;;;3.13;2.72;;;13.10;99.90;;;;;;4992579;28;20081;-73
2022/08/10 01:02:50;;;;;;;3.70;2.78;;;13.10;99.90;;;;;;4991256;28;20432;-69
2022/08/10 01:05:19;;;;;;;3.05;2.65;;;13.10;99.90;;;;;;4990358;28;20050;-72
2022/08/10 01:08:00;;;;;;;3.22;2.75;;;13.10;99.90;;;;;;4993032;28;20061;-74
2022/08/10 01:10:52;;;;;;;4.45;3.08;;;13.10;99.90;;;;;;4992041;28;20054;-73
2022/08/10 01:13:30;;;;;;;3.03;2.80;;;13.10;99.90;;;;;;4990188;28;20058;-74
2022/08/10 01:16:28;;;;;;;4.47;2.78;;;13.00;99.90;;;;;;4993520;28;20046;-73
2022/08/10 01:19:16;;;;;;;5.40;2.70;;;13.00;99.90;;;;;;4992472;28;20068;-70
2022/08/10 01:22:08;;;;;;;2.60;2.40;;;13.00;99.90;;;;;;4974352;28;20113;-72
2022/08/10 01:25:07;;;;;;;3.28;2.97;;;13.00;99.90;;;;;;4972005;28;20372;-74
2022/08/10 01:27:55;;;;;;;4.18;2.85;;;13.10;99.90;;;;;;4953809;28;20116;-69
2022/08/10 01:30:25;;;;;;;4.25;2.92;;;13.10;99.90;;;;;;4977048;28;20076;-73
2022/08/10 01:33:11;;;;;;;3.95;2.55;;;13.00;99.90;;;;;;4988975;28;20152;-76
2022/08/10 01:36:07;;;;;;;2.25;2.05;;;13.00;99.90;;;;;;4975842;28;20124;-70
2022/08/10 01:38:42;;;;;;;3.00;2.70;;;13.00;99.90;;;;;;4986683;28;20483;-71
2022/08/10 01:41:13;;;;;;;4.70;3.13;;;13.00;99.90;;;;;;4994416;28;20494;-70
2022/08/10 01:43:44;;;;;;;2.83;2.20;;;13.00;99.90;;;;;;4992899;28;20049;-71
2022/08/10 01:46:13;;;;;;;2.63;2.40;;;13.00;99.90;;;;;;4996495;28;20674;-71
2022/08/10 01:48:49;;;;;;;3.28;1.90;;;13.00;99.90;;;;;;4999135;28;20175;-73
2022/08/10 01:51:15;;;;;;;4.47;2.45;;;13.00;99.90;;;;;;4979449;28;20096;-71
2022/08/10 01:53:50;;;;;;;3.50;2.67;;;13.00;99.90;;;;;;4995410;28;20070;-70
2022/08/10 01:56:20;;;;;;;1.90;1.80;;;12.90;99.90;;;;;;4996114;28;20396;-72
2022/08/10 01:58:58;;;;;;;2.05;1.70;;;13.00;99.90;;;;;;4997180;28;20123;-70
2022/08/10 02:01:30;;;;;;;3.35;2.22;;;13.00;99.90;;;;;;4994069;28;20046;-70
2022/08/10 02:04:04;;;;;;;3.80;2.47;;;13.00;99.90;;;;;;4995317;28;20131;-72
2022/08/10 02:06:36;;;;;;;3.53;2.42;;;13.00;99.90;;;;;;4995996;28;20566;-73
2022/08/10 02:09:05;;;;;;;3.03;1.98;;;13.00;99.90;;;;;;4994797;28;20050;-71
2022/08/10 02:11:37;;;;;;;3.85;2.42;;;13.00;99.90;;;;;;4993253;28;20053;-70
2022/08/10 02:14:30;;;;;;;4.13;2.95;;;13.10;99.90;;;;;;4995473;28;20187;-71
2022/08/10 02:17:08;;;;;;;2.75;2.55;;;13.10;99.90;;;;;;4994950;28;20144;-69
2022/08/10 02:20:00;;;;;;;5.00;2.45;;;13.10;99.90;;;;;;4992977;28;20076;-68
2022/08/10 02:22:28;;;;;;;3.28;2.75;;;13.10;99.90;;;;;;4995306;28;20061;-73
2022/08/10 02:25:04;;;;;;;4.00;2.88;;;13.10;99.90;;;;;;4995171;28;20116;-68
2022/08/10 02:27:32;;;;;;;2.83;2.42;;;13.20;99.90;;;;;;4989275;28;20294;-69
2022/08/10 02:30:00;;;;;;;3.30;3.00;;;13.20;99.90;;;;;;4992586;28;20093;-69
2022/08/10 02:32:28;;;;;;;7.60;3.17;;;13.30;99.90;;;;;;4994562;28;20615;-68
2022/08/10 02:35:09;;;;;;;4.35;3.15;;;13.30;99.90;;;;;;4993490;28;20097;-75
2022/08/10 02:37:50;;;;;;;3.13;2.50;;;13.30;99.90;;;;;;4978197;28;20145;-67
2022/08/10 02:40:18;;;;;;;5.35;2.78;;;13.30;99.90;;;;;;4995026;28;20061;-71
2022/08/10 02:43:20;;;;;;;3.78;3.42;;;13.40;99.90;;;;;;4995986;28;20151;-70
2022/08/10 02:46:13;;;;;;;4.88;3.53;;;13.40;99.90;;;;;;4994442;28;20182;-69
2022/08/10 02:48:53;;;;;;;2.67;2.47;;;13.40;99.90;;;;;;4995223;28;20053;-71
2022/08/10 02:51:32;;;;;;;3.58;3.22;;;13.40;99.90;;;;;;4991584;28;20090;-69
2022/08/10 02:54:27;;;;;;;4.80;3.13;;;13.40;99.90;;;;;;4974024;28;20042;-69
2022/08/10 02:57:15;;;;;;;3.45;2.95;;;13.40;99.90;;;;;;4989868;28;20397;-69
2022/08/10 02:59:51;;;;;;;2.85;2.65;;;13.40;99.90;;;;;;4994915;28;20505;-73
2022/08/10 03:02:33;;;;;;;3.97;3.58;;;13.40;99.90;;;;;;4989860;28;20137;-68
2022/08/10 03:05:05;;;;;;;3.67;3.33;;;13.40;99.90;;;;;;4989945;28;20104;-68
2022/08/10 03:07:39;;;;;;;3.05;2.75;;;13.40;99.90;;;;;;4993358;28;20825;-71
2022/08/10 03:10:17;;;;;;;3.13;2.85;;;13.40;99.90;;;;;;4993858;28;20145;-70
2022/08/10 03:12:48;;;;;;;3.28;2.80;;;13.40;99.90;;;;;;4994997;28;20046;-73
2022/08/10 03:15:18;;;;;;;3.85;3.50;;;13.40;99.90;;;;;;4993569;28;21306;-68
2022/08/10 03:17:47;;;;;;;3.53;3.22;;;13.40;99.90;;;;;;4995490;28;20136;-70
2022/08/10 03:20:30;;;;;;;2.70;2.47;;;13.40;99.90;;;;;;4994487;28;20044;-72
2022/08/10 03:23:17;;;;;;;4.88;3.00;;;13.40;99.90;;;;;;4995513;28;20175;-69
2022/08/10 03:25:49;;;;;;;4.10;3.25;;;13.40;99.90;;;;;;4978346;28;20050;-71
2022/08/10 03:28:28;;;;;;;3.75;3.45;;;13.50;99.90;;;;;;4995022;28;20057;-75
2022/08/10 03:30:57;;;;;;;3.85;3.55;;;13.50;99.90;;;;;;4994739;28;20127;-70
2022/08/10 03:33:29;;;;;;;3.25;2.95;;;13.60;99.90;;;;;;4993145;28;20483;-70
2022/08/10 03:35:57;;;;;;;3.75;3.45;;;13.70;99.90;;;;;;4995084;28;20474;-71
2022/08/10 03:38:47;;;;;;;3.88;3.47;;;13.70;99.90;;;;;;4994654;28;20046;-67
2022/08/10 03:41:17;;;;;;;3.92;3.13;;;13.70;99.90;;;;;;4974844;28;20061;-71
2022/08/10 03:43:47;;;;;;;7.35;3.72;;;13.70;99.90;;;;;;4979461;28;20042;-71
2022/08/10 03:46:18;;;;;;;4.88;3.78;;;13.70;99.90;;;;;;4995020;28;20057;-73
2022/08/10 03:48:48;;;;;;;6.97;4.20;;;13.80;99.90;;;;;;4993903;28;21138;-67
2022/08/10 03:51:19;;;;;;;;;;;13.80;99.90;;;;;;4992312;28;20049;-70
2022/08/10 03:53:48;;;;;;;5.30;3.40;;;13.90;99.90;;;;;;4992747;28;20000;-69
2022/08/10 03:56:37;;;;;;;6.70;3.53;;;13.90;99.90;;;;;;4994489;28;20571;-69
2022/08/10 03:59:06;;;;;;;3.83;3.42;;;14.00;99.90;;;;;;4994138;28;20821;-71
2022/08/10 04:01:33;;;;;;;3.38;3.17;;;14.00;99.90;;;;;;4991419;28;20070;-70
2022/08/10 04:04:21;;;;;;;4.22;3.67;;;14.10;99.90;;;;;;4993246;28;20052;-70
2022/08/10 04:06:56;;;;;;;3.78;3.45;;;14.10;99.90;;;;;;4993897;28;20400;-69
2022/08/10 04:09:26;;;;;;;3.42;3.13;;;14.20;99.90;;;;;;4991740;28;20460;-68
2022/08/10 04:12:14;;;;;;;;;;;14.30;99.90;;;;;;4994814;28;20061;-71
2022/08/10 04:14:41;;;;;;;3.92;3.58;;;14.20;99.90;;;;;;4994078;28;19936;-70
2022/08/10 04:17:21;;;;;;;8.27;3.97;;;14.30;99.90;;;;;;4993213;28;20045;-72
2022/08/10 04:20:36;;;;;;;5.07;3.63;;;14.30;99.90;;;;;;4993095;28;20046;-70
2022/08/10 04:23:10;;;;;;;7.78;3.10;;;14.30;99.90;;;;;;4993123;28;20498;-71
2022/08/10 04:25:38;;;;;;;4.85;4.18;;;14.40;99.90;;;;;;4991069;28;20050;-70
2022/08/10 04:28:07;;;;;;;5.45;4.10;;;14.50;99.90;;;;;;4993720;28;20077;-70
2022/08/10 04:30:35;;;;;;;4.07;3.55;;;14.50;99.90;;;;;;4997358;28;20077;-72
2022/08/10 04:33:04;;;;;;;4.15;3.78;;;14.50;99.90;;;;;;4993572;28;20064;-70
2022/08/10 04:35:32;;;;;;;4.65;4.15;;;14.70;99.90;;;;;;4991275;28;20485;-70
2022/08/10 04:38:01;;;;;;;6.18;4.13;;;14.70;99.90;;;;;;4993426;28;20459;-72
2022/08/10 04:40:28;;;;;;;5.55;3.80;;;14.80;99.90;;;;;;4992799;28;20046;-68
2022/08/10 04:42:59;;;;;;;4.50;3.90;;;14.80;99.90;;;;;;4993674;28;20053;-67
2022/08/10 04:45:29;;;;;;;4.85;3.85;;;14.90;99.90;;;;;;4990855;28;20112;-73
2022/08/10 04:48:23;;;;;;;5.35;3.35;;;14.90;99.90;;;;;;4992845;28;20050;-73
2022/08/10 04:51:13;;;;;;;5.07;4.57;;;15.00;99.90;;;;;;4992886;28;20064;-71
2022/08/10 04:53:44;;;;;;;4.15;3.75;;;15.10;99.90;;;;;;4990795;28;20064;-70
2022/08/10 04:56:31;;;;;;;3.97;3.15;;;15.10;99.90;;;;;;4993562;28;20168;-69
2022/08/10 04:58:59;;;;;;;3.97;3.65;;;15.30;99.90;;;;;;4993982;28;20053;-70
2022/08/10 05:01:27;;;;;;;8.95;4.50;;;15.40;99.90;;;;;;4991190;28;20115;-73
2022/08/10 05:04:13;;;;;;;7.07;4.35;;;15.50;99.90;;;;;;4997937;28;20135;-72
2022/08/10 05:07:00;;;;;;;5.40;4.57;;;15.60;99.90;;;;;;4997356;28;20156;-73
2022/08/10 05:09:27;;;;;;;5.07;4.55;;;15.70;99.90;;;;;;4994932;28;20073;-72
2022/08/10 05:11:54;;;;;;;6.43;3.75;;;15.80;99.90;;;;;;4995871;28;20049;-69
2022/08/10 05:14:21;;;;;;;4.60;3.50;;;15.90;99.90;;;;;;4997124;28;20181;-73
2022/08/10 05:16:48;;;;;;;7.78;4.82;;;16.00;99.90;;;;;;4996888;28;20479;-71
2022/08/10 05:19:15;;;;;;;5.35;4.18;;;16.10;99.90;;;;;;4995347;28;20445;-69
2022/08/10 05:21:43;;;;;;;4.93;3.55;;;16.10;99.90;;;;;;4995883;28;20147;-71
2022/08/10 05:24:31;;;;;;;5.22;4.72;;;16.30;99.90;;;;;;4996126;28;20080;-75
2022/08/10 05:26:58;;;;;;;5.20;4.15;;;16.40;99.90;;;;;;4996647;28;20394;-68
2022/08/10 05:29:35;;;;;;;4.75;4.25;;;16.50;99.90;;;;;;4994047;28;20050;-73
2022/08/10 05:32:02;;;;;;;6.65;4.63;;;16.60;99.90;;;;;;4996925;28;20147;-73
2022/08/10 05:34:29;;;;;;;5.65;4.57;;;16.70;99.90;;;;;;4994262;28;20630;-71
2022/08/10 05:36:56;;;;;;;6.00;3.20;;;16.70;99.90;;;;;;4995904;28;20096;-70
2022/08/10 05:39:24;;;;;;;9.40;4.38;;;16.80;99.90;;;;;;4994322;28;20528;-74
2022/08/10 05:41:58;;;;;;;5.20;4.07;;;16.90;99.90;;;;;;4997379;28;20050;-68
2022/08/10 05:44:28;;;;;;;11.20;4.75;;;17.10;99.90;;;;;;4995206;28;20046;-72
2022/08/10 05:46:55;;;;;;;5.85;3.85;;;17.20;99.90;;;;;;4996252;28;20332;-71
2022/08/10 05:49:22;;;;;;;7.47;3.58;;;17.30;99.90;;;;;;5000191;28;20080;-73
2022/08/10 05:51:50;;;;;;;6.07;3.60;;;17.40;99.90;;;;;;4997073;28;20129;-68
2022/08/10 05:54:17;;;;;;;5.22;3.88;;;17.50;99.90;;;;;;4995493;28;20121;-70
2022/08/10 05:56:47;;;;;;;5.15;4.65;;;17.50;99.90;;;;;;4996187;28;20046;-67
2022/08/10 05:59:33;;;;;;;5.78;3.78;;;17.60;99.90;;;;;;4994544;28;20911;-68
2022/08/10 06:02:30;;;;;;;5.57;3.13;;;17.70;99.90;;;;;;4995467;28;20403;-74
2022/08/10 06:05:18;;;;;;;4.30;3.85;;;17.80;99.90;;;;;;4996140;28;20057;-67
2022/08/10 06:07:48;;;;;;;4.68;3.85;;;17.80;99.90;;;;;;4975190;28;20128;-71
2022/08/10 06:10:16;;;;;;;5.07;3.65;;;17.90;99.90;;;;;;4975565;28;20054;-70
2022/08/10 06:16:04;;;;;;;4.18;3.88;;;18.00;99.90;;;;;;4974729;28;20865;-68
2022/08/10 06:18:31;;;;;;;5.25;3.58;;;18.00;99.90;;;;;;4975594;28;20125;-70
2022/08/10 06:20:59;;;;;;;3.45;3.13;;;18.10;99.90;;;;;;4976335;28;20060;-71
2022/08/10 06:23:28;;;;;;;4.95;3.20;;;18.10;99.90;;;;;;4991542;28;20072;-70
2022/08/10 06:25:55;;;;;;;3.28;2.97;;;18.20;99.90;;;;;;4995093;28;20046;-69
2022/08/10 06:28:44;;;;;;;5.03;3.92;;;18.30;99.90;;;;;;4993543;28;20400;-69
2022/08/10 06:31:31;;;;;;;4.63;4.32;;;18.30;99.90;;;;;;4993408;28;20579;-69
2022/08/10 06:34:34;;;;;;;4.30;3.90;;;18.40;99.90;;;;;;4994551;28;20071;-68
2022/08/10 06:37:03;;;;;;;4.93;3.60;;;18.40;99.90;;;;;;4993816;28;20042;-72
2022/08/10 06:39:30;;;;;;;5.68;5.10;;;18.40;99.90;;;;;;4992477;28;20092;-69
2022/08/10 06:42:10;;;;;;;5.15;4.22;;;18.50;99.90;;;;;;4994448;28;20163;-74
2022/08/10 06:45:20;;;;;;;5.32;3.83;;;18.50;99.90;;;;;;4995148;28;20832;-74
2022/08/10 06:48:28;;;;;;;4.20;3.80;;;18.50;99.90;;;;;;4949259;28;20157;-69
2022/08/10 06:51:01;;;;;;;3.70;3.40;;;18.60;99.90;;;;;;4973884;28;20330;-67
2022/08/10 06:53:35;;;;;;;4.28;3.88;;;18.60;99.90;;;;;;4976775;28;20074;-72
2022/08/10 06:56:31;;;;;;;4.93;3.45;;;18.70;99.90;;;;;;4998644;28;20038;-72
2022/08/10 06:59:15;;;;;;;3.95;3.63;;;18.80;99.90;;;;;;4994500;28;20054;-70
2022/08/10 07:02:07;;;;;;;4.05;3.60;;;18.90;99.90;;;;;;4993290;28;20883;-72
2022/08/10 07:04:42;;;;;;;3.55;3.25;;;19.00;99.90;;;;;;4993353;28;20046;-71
2022/08/10 07:07:15;;;;;;;5.07;4.68;;;19.00;99.90;;;;;;4993655;28;20054;-71
2022/08/10 07:09:44;;;;;;;4.22;3.20;;;19.10;99.90;;;;;;4971596;28;20054;-70
2022/08/10 07:12:13;;;;;;;3.90;3.50;;;19.10;99.90;;;;;;4974987;28;20413;-71
2022/08/10 07:14:43;;;;;;;4.03;3.72;;;19.10;99.90;;;;;;4987475;28;20076;-76
2022/08/10 07:17:18;;;;;;;6.25;3.45;;;19.10;99.90;;;;;;4996047;28;20125;-70
2022/08/10 07:19:51;;;;;;;5.50;3.78;;;19.20;99.90;;;;;;4978534;28;20599;-71
2022/08/10 07:22:28;;;;;;;3.47;3.17;;;19.20;99.90;;;;;;4994811;28;20076;-71
2022/08/10 07:25:19;;;;;;;3.25;2.95;;;19.20;99.90;;;;;;4974577;28;20165;-74
2022/08/10 07:27:48;;;;;;;4.97;3.65;;;19.20;99.90;;;;;;4995332;28;20480;-72
2022/08/10 07:30:34;;;;;;;3.63;3.30;;;19.30;99.90;;;;;;4994149;28;20058;-71
2022/08/10 07:33:03;;;;;;;4.90;3.53;;;19.30;99.90;;;;;;4992596;28;20141;-73
2022/08/10 07:35:33;;;;;;;5.30;3.80;;;19.30;99.90;;;;;;4992826;28;20747;-69
2022/08/10 07:38:18;;;;;;;2.92;2.63;;;19.40;99.90;;;;;;4994846;28;20533;-71
2022/08/10 07:40:48;;;;;;;3.58;2.80;;;19.40;99.90;;;;;;4993789;28;20123;-71
2022/08/10 07:43:17;;;;;;;3.17;2.30;;;19.50;99.90;;;;;;4991431;28;20149;-70
2022/08/10 07:45:46;;;;;;;3.77;2.73;;;19.60;99.90;;;;;;4990362;28;20370;-69
2022/08/10 07:48:17;;;;;;;3.45;2.45;;;19.60;99.90;;;;;;4995014;28;20053;-71
2022/08/10 07:50:46;;;;;;;3.78;3.47;;;19.60;99.90;;;;;;4992528;28;20045;-68
2022/08/10 07:53:20;;;;;;;5.32;3.47;;;19.60;99.90;;;;;;4976356;28;20090;-71
2022/08/10 07:55:48;;;;;;;5.15;4.35;;;19.70;99.90;;;;;;4972756;28;20137;-68
2022/08/10 07:58:39;;;;;;;3.28;2.97;;;19.80;99.90;;;;;;4986965;28;20046;-68
2022/08/10 08:01:21;;;;;;;4.05;3.70;;;19.80;99.90;;;;;;4992548;28;20049;-73
2022/08/10 08:03:49;;;;;;;3.40;2.30;;;19.80;99.90;;;;;;4994878;28;20061;-68
2022/08/10 08:06:37;;;;;;;3.75;3.45;;;19.90;99.90;;;;;;4991880;28;20038;-70
2022/08/10 08:09:04;;;;;;;3.78;3.58;;;20.00;99.90;;;;;;4992755;28;20155;-68
2022/08/10 08:11:32;;;;;;;6.13;3.22;;;20.00;99.90;;;;;;4991676;28;20427;-70
2022/08/10 08:14:00;;;;;;;4.93;3.10;;;20.00;99.90;;;;;;4994743;28;20073;-71
2022/08/10 08:16:28;;;;;;;3.22;2.92;;;20.10;99.90;;;;;;4993389;28;20146;-71
2022/08/10 08:18:57;;;;;;;2.28;2.08;;;20.10;99.90;;;;;;4994786;28;20062;-68
2022/08/10 08:21:45;;;;;;;4.80;3.03;;;20.20;99.90;;;;;;4987120;28;20131;-71
2022/08/10 08:24:36;;;;;;;4.57;3.03;;;20.30;99.90;;;;;;4992613;28;20049;-73
2022/08/10 08:27:04;;;;;;;3.03;2.83;;;20.30;99.90;;;;;;4993119;28;20467;-72
2022/08/10 08:29:34;;;;;;;3.20;2.90;;;20.40;99.90;;;;;;4987878;28;21007;-74
2022/08/10 08:32:02;;;;;;;;;;;20.40;99.90;;;;;;4989163;28;20104;-67
2022/08/10 08:34:39;;;;;;;3.65;2.97;;;20.30;99.90;;;;;;4989179;28;19925;-71
2022/08/10 08:37:08;;;;;;;6.97;3.05;;;20.30;99.90;;;;;;4985581;28;20130;-70
2022/08/10 08:39:36;;;;;;;2.90;2.70;;;20.30;99.90;;;;;;4982463;28;20145;-70
2022/08/10 08:42:19;;;;;;;3.20;2.80;;;20.40;99.90;;;;;;4986093;28;20041;-73
2022/08/10 08:45:14;;;;;;;3.83;3.53;;;20.60;99.90;;;;;;4987643;28;20157;-71
2022/08/10 08:48:18;;;;;;;2.92;2.70;;;20.50;99.90;;;;;;4983240;28;20560;-72
2022/08/10 08:50:54;;;;;;;6.28;5.68;;;20.70;99.90;;;;;;4985979;28;20052;-72
2022/08/10 08:53:55;;;;;;;3.85;3.55;;;20.70;99.90;;;;;;4983096;28;20080;-70
2022/08/10 08:56:39;;;;;;;2.90;2.70;;;20.60;99.90;;;;;;4988800;28;20530;-74
2022/08/10 08:59:28;;;;;;;3.03;2.83;;;20.60;99.90;;;;;;4987801;28;20770;-71
2022/08/10 09:02:17;;;;;;;4.35;3.65;;;20.60;99.90;;;;;;4981572;28;20075;-76
2022/08/10 09:05:07;;;;;;;3.50;2.67;;;20.60;99.90;;;;;;4986322;28;20049;-69
2022/08/10 09:08:25;;;;;;;3.58;2.88;;;20.80;99.90;;;;;;4982648;28;20058;-71
2022/08/10 09:11:12;;;;;;;3.10;2.80;;;20.70;99.90;;;;;;4987004;28;20681;-71
2022/08/10 09:13:53;;;;;;;3.88;3.22;;;20.70;99.90;;;;;;4973155;28;20058;-72
2022/08/10 09:16:52;;;;;;;3.08;2.88;;;20.60;99.90;;;;;;4969709;28;20472;-70
2022/08/10 09:19:47;;;;;;;4.10;2.95;;;20.80;99.90;;;;;;4962910;28;20492;-72
2022/08/10 09:22:31;;;;;;;4.55;3.22;;;20.80;99.90;;;;;;4968354;28;20200;-71
2022/08/10 09:25:13;;;;;;;2.78;2.58;;;20.80;99.90;;;;;;4966223;28;20133;-71
2022/08/10 09:27:44;;;;;;;5.55;2.78;;;20.80;99.90;;;;;;4965797;28;20551;-73
2022/08/10 09:30:27;;;;;;;5.55;3.47;;;20.90;99.90;;;;;;4967997;28;20128;-75
2022/08/10 09:33:15;;;;;;;3.80;3.40;;;20.80;99.90;;;;;;4964008;28;20058;-73
2022/08/10 09:36:38;;;;;;;3.65;2.78;;;20.90;99.90;;;;;;4984193;28;20054;-71
2022/08/10 09:39:34;;;;;;;3.35;3.08;;;20.90;99.90;;;;;;4987349;28;20057;-71
2022/08/10 09:42:43;;;;;;;4.03;3.67;;;20.90;99.90;;;;;;4987844;28;20505;-71
2022/08/10 09:45:34;;;;;;;2.85;2.40;;;20.80;99.90;;;;;;4987687;28;20050;-68
2022/08/10 09:48:12;;;;;;;3.92;2.42;;;20.80;99.90;;;;;;4992039;28;20978;-71
2022/08/10 09:50:54;;;;;;;3.72;2.85;;;20.70;99.90;;;;;;4992140;28;20108;-73
2022/08/10 09:54:00;;;;;;;5.20;2.72;;;20.60;99.90;;;;;;4989670;28;20057;-72
2022/08/10 09:56:55;;;;;;;2.97;2.65;;;20.60;99.90;;;;;;4992858;28;20396;-68
2022/08/10 09:59:52;;;;;;;3.03;2.83;;;20.60;99.90;;;;;;4989800;28;20616;-72
2022/08/10 10:02:53;;;;;;;3.63;2.42;;;20.60;99.90;;;;;;4991902;28;20153;-69
2022/08/10 10:05:48;;;;;;;3.72;2.88;;;20.70;99.90;;;;;;4989565;28;20458;-69
2022/08/10 10:08:29;;;;;;;4.60;2.97;;;20.80;99.90;;;;;;4990945;28;20069;-69
2022/08/10 10:11:34;;;;;;;4.32;2.70;;;21.00;99.90;;;;;;4993001;28;20082;-72
2022/08/10 10:14:25;;;;;;;4.60;3.33;;;21.10;99.90;;;;;;4990953;28;20176;-69
2022/08/10 10:17:16;;;;;;;2.72;1.98;;;21.10;99.90;;;;;;4991525;28;20050;-69
2022/08/10 10:20:15;;;;;;;3.90;2.78;;;21.10;99.90;;;;;;4991213;28;20547;-73
2022/08/10 10:22:51;;;;;;;2.42;2.17;;;21.10;99.90;;;;;;4990839;28;20139;-68
2022/08/10 10:25:40;;;;;;;2.10;1.90;;;21.20;99.90;;;;;;4988944;28;20527;-68
2022/08/10 10:28:33;;;;;;;2.67;2.50;;;21.60;99.90;;;;;;4990846;28;20081;-68
2022/08/10 10:31:37;;;;;;;2.60;2.13;;;21.80;99.90;;;;;;4989365;28;20052;-70
2022/08/10 10:34:14;;;;;;;4.05;2.53;;;21.70;99.90;;;;;;4990883;28;20052;-72
2022/08/10 10:36:43;;;;;;;4.80;2.53;;;21.90;99.90;;;;;;4989916;28;20053;-69
2022/08/10 10:39:15;;;;;;;3.07;2.87;;;22.00;99.90;;;;;;4991254;28;20056;-71
2022/08/10 10:42:00;;;;;;;2.33;2.20;;;21.90;99.90;;;;;;4989522;28;20295;-73
2022/08/10 10:44:53;;;;;;;3.20;1.90;;;21.90;99.90;;;;;;4989875;28;20054;-72
2022/08/10 10:47:48;;;;;;;3.08;2.35;;;22.10;99.90;;;;;;4987829;28;20056;-73
2022/08/10 10:50:33;;;;;;;2.45;2.20;;;22.10;99.90;;;;;;4989116;28;20257;-69
2022/08/10 10:53:32;;;;;;;3.88;3.58;;;21.90;99.90;;;;;;4989763;28;20377;-69
2022/08/10 10:56:17;;;;;;;2.65;2.45;;;21.80;99.90;;;;;;4988874;28;20577;-71
2022/08/10 10:59:09;;;;;;;1.67;1.58;;;21.80;99.90;;;;;;4989092;28;20065;-72
2022/08/10 11:02:20;;;;;;;3.15;2.20;;;21.80;99.90;;;;;;4989082;28;20066;-71
2022/08/10 11:05:07;;;;;;;2.22;2.00;;;21.80;99.90;;;;;;4990160;28;20742;-71
2022/08/10 11:07:43;;;;;;;4.70;2.15;;;21.60;99.90;;;;;;4987806;28;20042;-68
2022/08/10 11:10:24;;;;;;;3.15;2.13;;;21.70;99.90;;;;;;4989627;28;20057;-70
2022/08/10 11:13:18;;;;;;;4.07;2.58;;;21.80;99.90;;;;;;4990426;28;20050;-72
2022/08/10 11:16:09;;;;;;;2.28;2.08;;;21.80;99.90;;;;;;4989300;28;20165;-69
2022/08/10 11:19:14;;;;;;;2.63;2.42;;;21.80;99.90;;;;;;4988575;28;20106;-74
2022/08/10 11:22:12;;;;;;;1.65;1.55;;;21.70;99.90;;;;;;4967624;28;20531;-69
2022/08/10 11:24:47;;;;;;;3.85;2.10;;;21.80;99.90;;;;;;4971078;28;20050;-69
2022/08/10 11:27:53;;;;;;;2.45;2.15;;;21.70;99.90;;;;;;4967840;28;20521;-69
2022/08/10 11:30:43;;;;;;;2.72;2.15;;;21.80;99.90;;;;;;4970280;28;20141;-71
2022/08/10 11:33:10;;;;;;;3.72;2.50;;;21.80;99.90;;;;;;4971094;28;20212;-70
2022/08/10 11:35:50;;;;;;;1.88;1.77;;;22.20;99.90;;;;;;4987968;28;20113;-69
2022/08/10 11:38:34;;;;;;;1.92;1.77;;;22.30;99.90;;;;;;4989036;28;20167;-74
2022/08/10 11:42:02;;;;;;;4.45;2.00;;;22.40;99.90;;;;;;4988069;28;20074;-70
2022/08/10 11:44:58;;;;;;;3.70;1.85;;;22.30;99.90;;;;;;4988749;28;20970;-72
2022/08/10 11:47:34;;;;;;;2.35;1.90;;;22.30;99.90;;;;;;4987342;28;20472;-70
2022/08/10 11:50:20;;;;;;;2.03;1.92;;;22.30;99.90;;;;;;4988271;28;20101;-72
2022/08/10 11:52:47;;;;;;;1.75;1.58;;;22.40;99.90;;;;;;4988935;28;20499;-71
2022/08/10 11:55:29;;;;;;;1.42;1.23;;;22.40;99.90;;;;;;4986316;28;20060;-72
2022/08/10 12:01:01;;;;;;;1.85;1.73;;;22.70;99.90;;;;;;4988717;28;20068;-70
2022/08/10 12:03:31;;;;;;;3.95;1.58;;;22.70;99.90;;;;;;4986317;28;20053;-68
2022/08/10 12:06:03;;;;;;;1.75;1.52;;;22.90;99.90;;;;;;4988570;28;20046;-71
2022/08/10 12:08:31;;;;;;;1.50;1.40;;;23.10;99.90;;;;;;4987218;28;20161;-69
2022/08/10 12:11:25;;;;;;;1.95;1.80;;;23.20;99.90;;;;;;4986497;28;20071;-72
2022/08/10 12:13:56;;;;;;;2.40;1.85;;;23.30;99.90;;;;;;4989031;28;20053;-72
2022/08/10 12:16:48;;;;;;;4.63;1.90;;;23.40;99.90;;;;;;4989057;28;20453;-71
2022/08/10 12:19:42;;;;;;;6.40;2.30;;;23.60;99.90;;;;;;4987733;28;20668;-73
2022/08/10 12:23:07;;;;;;;2.00;1.80;;;23.60;99.90;;;;;;4988783;28;20046;-69
2022/08/10 12:26:13;;;;;;;2.13;1.42;;;23.50;99.90;;;;;;4986729;28;20650;-69
2022/08/10 12:28:54;;;;;;;1.70;1.38;;;23.50;99.90;;;;;;4989125;28;20139;-70
2022/08/10 12:31:50;;;;;;;1.75;1.65;;;23.40;99.90;;;;;;4986697;28;20061;-69
2022/08/10 12:34:33;;;;;;;1.50;1.40;;;23.30;99.90;;;;;;4987065;28;20042;-72
2022/08/10 12:37:08;;;;;;;1.90;1.40;;;23.40;99.90;;;;;;4988067;28;20404;-68
2022/08/10 12:39:49;;;;;;;2.28;1.63;;;23.50;99.90;;;;;;4986799;28;20054;-68
2022/08/10 12:42:25;;;;;;;1.58;1.48;;;23.80;99.90;;;;;;4988930;28;20164;-71
2022/08/10 12:45:16;;;;;;;1.40;1.30;;;24.00;99.80;;;;;;4989397;28;20129;-69
2022/08/10 12:47:58;;;;;;;1.40;1.30;;;24.10;99.90;;;;;;4986396;28;20054;-70
2022/08/10 12:51:07;;;;;;;2.20;1.98;;;24.30;99.60;;;;;;4988442;28;20050;-71
2022/08/10 12:54:02;;;;;;;2.70;2.42;;;24.40;99.90;;;;;;4985598;28;20326;-71
2022/08/10 12:56:44;;;;;;;1.52;1.42;;;24.50;99.90;;;;;;4988959;28;20127;-71
2022/08/10 12:59:12;;;;;;;1.33;1.23;;;24.70;99.90;;;;;;4987253;28;20117;-69
2022/08/10 13:01:42;;;;;;;5.30;1.77;;;24.70;99.90;;;;;;4986880;28;20137;-72
2022/08/10 13:04:32;;;;;;;3.80;1.38;;;24.50;99.90;;;;;;4987635;28;20542;-70
2022/08/10 13:07:01;;;;;;;2.10;1.65;;;24.40;99.90;;;;;;4987942;28;20145;-69
2022/08/10 13:09:30;;;;;;;2.25;1.67;;;24.20;99.90;;;;;;4986799;28;20157;-69
2022/08/10 13:12:16;;;;;;;4.05;1.65;;;24.20;99.90;;;;;;4985701;28;20046;-72
2022/08/10 13:15:23;;;;;;;2.63;2.25;;;24.10;99.90;;;;;;4977576;28;20057;-71
2022/08/10 13:18:13;;;;;;;2.88;1.40;;;24.00;99.90;;;;;;4967875;28;20065;-71
2022/08/10 13:20:50;;;;;;;1.42;1.15;;;24.10;99.90;;;;;;4968476;28;20461;-71
2022/08/10 13:23:26;;;;;;;2.22;1.40;;;24.00;99.90;;;;;;4968552;28;20042;-70
2022/08/10 13:25:56;;;;;;;2.33;1.30;;;23.90;99.90;;;;;;4973337;28;20120;-69
2022/08/10 13:28:46;;;;;;;7.47;2.15;;;24.00;99.90;;;;;;4973133;28;20138;-71
2022/08/10 13:31:22;;;;;;;2.25;1.70;;;24.00;99.90;;;;;;4971024;28;20144;-70
2022/08/10 13:34:18;;;;;;;2.85;1.20;;;24.10;99.90;;;;;;4972779;28;20067;-73
2022/08/10 13:37:10;;;;;;;4.30;1.83;;;24.10;99.90;;;;;;4970991;28;20353;-72
2022/08/10 13:39:40;;;;;;;1.52;1.42;;;24.20;99.90;;;;;;4970279;28;20047;-69
2022/08/10 13:42:29;;;;;;;1.42;1.33;;;24.30;99.90;;;;;;4970559;28;20527;-71
2022/08/10 13:45:07;;;;;;;8.55;2.00;;;24.30;99.90;;;;;;4971928;28;20096;-70
2022/08/10 13:47:35;;;;;;;2.45;1.48;;;24.50;99.90;;;;;;4970671;28;20055;-71
2022/08/10 13:50:30;;;;;;;1.85;1.40;;;24.60;99.90;;;;;;4968181;28;20084;-70
2022/08/10 13:53:03;;;;;;;1.90;1.10;;;24.90;99.90;;;;;;4971166;28;20061;-70
2022/08/10 13:55:49;;;;;;;2.13;1.48;;;25.20;98.70;;;;;;4970898;28;20058;-70
2022/08/10 13:58:43;;;;;;;4.32;1.70;;;25.40;97.40;;;;;;4971456;28;20487;-72
2022/08/10 14:01:27;;;;;;;3.42;1.27;;;25.10;97.20;;;;;;4972182;28;20120;-69